sensor_id;sensor_type;location;lat;lon;timestamp;pressure;altitude;pressure_sealevel;temperature;humidity
62895;BME280;49204;44.916;37.998;2023-02-26T00:01:36;100952.61;;;12.73;31.50
62895;BME280;49204;44.916;37.998;2023-02-26T00:04:04;100951.73;;;12.72;31.64
62895;BME280;49204;44.916;37.998;2023-02-26T00:06:34;100949.97;;;12.73;31.74
62895;BME280;49204;44.916;37.998;2023-02-26T00:09:02;100960.00;;;12.75;31.68
62895;BME280;49204;44.916;37.998;2023-02-26T00:11:31;100962.30;;;12.72;32.04
62895;BME280;49204;44.916;37.998;2023-02-26T00:13:59;100952.14;;;12.73;32.12
62895;BME280;49204;44.916;37.998;2023-02-26T00:16:28;100952.55;;;12.74;32.26
62895;BME280;49204;44.916;37.998;2023-02-26T00:18:58;100954.78;;;12.73;32.43
62895;BME280;49204;44.916;37.998;2023-02-26T00:21:26;100976.45;;;12.71;32.64
62895;BME280;49204;44.916;37.998;2023-02-26T00:23:54;100967.09;;;12.74;32.82
62895;BME280;49204;44.916;37.998;2023-02-26T00:26:22;100978.63;;;12.72;32.94
62895;BME280;49204;44.916;37.998;2023-02-26T00:28:50;100954.91;;;12.70;33.19
62895;BME280;49204;44.916;37.998;2023-02-26T00:31:19;100962.33;;;12.62;33.56
62895;BME280;49204;44.916;37.998;2023-02-26T00:33:49;100957.70;;;12.57;33.64
62895;BME280;49204;44.916;37.998;2023-02-26T00:36:19;100968.34;;;12.55;33.67
62895;BME280;49204;44.916;37.998;2023-02-26T00:38:52;100905.29;;;12.58;33.64
62895;BME280;49204;44.916;37.998;2023-02-26T00:41:15;100953.74;;;12.57;33.69
62895;BME280;49204;44.916;37.998;2023-02-26T00:43:44;100952.55;;;12.54;33.94
62895;BME280;49204;44.916;37.998;2023-02-26T00:46:15;100915.32;;;12.50;34.03
62895;BME280;49204;44.916;37.998;2023-02-26T00:48:46;100931.58;;;12.51;34.15
62895;BME280;49204;44.916;37.998;2023-02-26T00:53:48;100934.62;;;12.42;34.66
62895;BME280;49204;44.916;37.998;2023-02-26T00:56:15;100926.44;;;12.38;34.81
62895;BME280;49204;44.916;37.998;2023-02-26T00:58:43;100945.84;;;12.36;34.91
62895;BME280;49204;44.916;37.998;2023-02-26T01:01:10;100942.78;;;12.35;35.04
62895;BME280;49204;44.916;37.998;2023-02-26T01:03:38;100968.02;;;12.32;35.20
62895;BME280;49204;44.916;37.998;2023-02-26T01:06:09;100930.39;;;12.27;35.35
62895;BME280;49204;44.916;37.998;2023-02-26T01:08:42;100951.10;;;12.26;35.17
62895;BME280;49204;44.916;37.998;2023-02-26T01:11:05;100951.92;;;12.28;35.10
62895;BME280;49204;44.916;37.998;2023-02-26T01:13:33;100953.50;;;12.32;35.10
62895;BME280;49204;44.916;37.998;2023-02-26T01:16:03;100951.10;;;12.26;35.43
62895;BME280;49204;44.916;37.998;2023-02-26T01:18:32;100950.38;;;12.23;35.59
62895;BME280;49204;44.916;37.998;2023-02-26T01:21:02;100944.12;;;12.25;35.34
62895;BME280;49204;44.916;37.998;2023-02-26T01:23:30;100948.93;;;12.26;35.40
62895;BME280;49204;44.916;37.998;2023-02-26T01:25:59;100952.36;;;12.28;35.48
62895;BME280;49204;44.916;37.998;2023-02-26T01:28:27;100952.95;;;12.24;35.67
62895;BME280;49204;44.916;37.998;2023-02-26T01:30:57;100963.52;;;12.24;35.65
62895;BME280;49204;44.916;37.998;2023-02-26T01:35:57;100992.12;;;12.25;35.81
62895;BME280;49204;44.916;37.998;2023-02-26T01:38:32;100982.99;;;12.22;36.02
62895;BME280;49204;44.916;37.998;2023-02-26T01:46:13;100997.57;;;12.20;36.54
62895;BME280;49204;44.916;37.998;2023-02-26T01:48:51;101004.38;;;12.15;36.72
62895;BME280;49204;44.916;37.998;2023-02-26T01:51:39;100995.58;;;12.15;37.00
62895;BME280;49204;44.916;37.998;2023-02-26T01:53:48;100991.09;;;12.17;37.13
62895;BME280;49204;44.916;37.998;2023-02-26T01:56:17;100996.05;;;12.14;37.23
62895;BME280;49204;44.916;37.998;2023-02-26T01:58:46;100986.81;;;12.14;37.41
62895;BME280;49204;44.916;37.998;2023-02-26T02:01:15;100979.89;;;12.12;37.62
62895;BME280;49204;44.916;37.998;2023-02-26T02:03:42;100998.80;;;12.11;37.76
62895;BME280;49204;44.916;37.998;2023-02-26T02:06:15;100995.78;;;12.10;37.95
62895;BME280;49204;44.916;37.998;2023-02-26T02:08:44;100990.98;;;12.10;38.11
62895;BME280;49204;44.916;37.998;2023-02-26T02:11:12;101002.03;;;12.08;38.30
62895;BME280;49204;44.916;37.998;2023-02-26T02:13:45;101005.34;;;12.03;38.54
62895;BME280;49204;44.916;37.998;2023-02-26T02:18:42;101006.45;;;11.97;38.87
62895;BME280;49204;44.916;37.998;2023-02-26T02:21:20;100998.06;;;11.97;38.97
62895;BME280;49204;44.916;37.998;2023-02-26T02:23:54;100998.97;;;11.96;39.21
62895;BME280;49204;44.916;37.998;2023-02-26T02:26:34;101004.45;;;11.92;39.47
62895;BME280;49204;44.916;37.998;2023-02-26T02:29:15;100995.09;;;11.83;39.77
62895;BME280;49204;44.916;37.998;2023-02-26T02:31:42;101002.73;;;11.79;40.24
62895;BME280;49204;44.916;37.998;2023-02-26T02:34:21;101014.35;;;11.85;40.28
62895;BME280;49204;44.916;37.998;2023-02-26T02:36:47;100994.51;;;11.87;40.43
62895;BME280;49204;44.916;37.998;2023-02-26T02:39:15;101003.80;;;11.85;40.69
62895;BME280;49204;44.916;37.998;2023-02-26T02:41:47;100997.67;;;11.85;40.89
62895;BME280;49204;44.916;37.998;2023-02-26T02:44:16;101021.41;;;11.85;41.13
62895;BME280;49204;44.916;37.998;2023-02-26T02:46:45;101010.92;;;11.83;41.33
62895;BME280;49204;44.916;37.998;2023-02-26T02:49:17;101015.88;;;11.81;41.63
62895;BME280;49204;44.916;37.998;2023-02-26T02:51:54;101025.62;;;11.78;41.90
62895;BME280;49204;44.916;37.998;2023-02-26T02:54:34;101034.03;;;11.76;41.93
62895;BME280;49204;44.916;37.998;2023-02-26T02:56:57;101023.63;;;11.73;42.33
62895;BME280;49204;44.916;37.998;2023-02-26T02:59:29;101023.27;;;11.71;42.61
62895;BME280;49204;44.916;37.998;2023-02-26T03:04:30;101025.90;;;11.71;43.13
62895;BME280;49204;44.916;37.998;2023-02-26T03:06:58;101040.87;;;11.70;43.32
62895;BME280;49204;44.916;37.998;2023-02-26T03:09:26;101023.63;;;11.73;43.77
62895;BME280;49204;44.916;37.998;2023-02-26T03:11:54;101026.06;;;11.78;43.68
62895;BME280;49204;44.916;37.998;2023-02-26T03:14:22;101038.08;;;11.75;43.79
62895;BME280;49204;44.916;37.998;2023-02-26T03:16:55;101035.02;;;11.74;44.03
62895;BME280;49204;44.916;37.998;2023-02-26T03:22:10;100995.52;;;11.72;44.35
62895;BME280;49204;44.916;37.998;2023-02-26T03:27:33;101031.17;;;11.71;44.52
62895;BME280;49204;44.916;37.998;2023-02-26T03:30:08;101014.17;;;11.68;44.57
62895;BME280;49204;44.916;37.998;2023-02-26T03:32:41;101034.34;;;11.69;44.74
62895;BME280;49204;44.916;37.998;2023-02-26T03:35:11;101029.06;;;11.69;44.86
62895;BME280;49204;44.916;37.998;2023-02-26T03:38:01;101030.52;;;11.66;44.92
62895;BME280;49204;44.916;37.998;2023-02-26T03:40:09;101033.02;;;11.69;45.02
62895;BME280;49204;44.916;37.998;2023-02-26T03:42:56;101046.73;;;11.67;45.20
62895;BME280;49204;44.916;37.998;2023-02-26T03:45:28;101069.67;;;11.65;45.27
62895;BME280;49204;44.916;37.998;2023-02-26T03:47:56;101052.20;;;11.62;45.40
62895;BME280;49204;44.916;37.998;2023-02-26T03:50:28;101066.76;;;11.61;45.63
62895;BME280;49204;44.916;37.998;2023-02-26T03:52:59;101058.48;;;11.58;45.76
62895;BME280;49204;44.916;37.998;2023-02-26T03:58:29;101067.38;;;11.55;46.09
62895;BME280;49204;44.916;37.998;2023-02-26T04:01:00;101071.86;;;11.53;46.15
62895;BME280;49204;44.916;37.998;2023-02-26T04:03:29;101067.55;;;11.51;46.30
62895;BME280;49204;44.916;37.998;2023-02-26T04:05:57;101085.95;;;11.52;46.38
62895;BME280;49204;44.916;37.998;2023-02-26T04:08:25;101073.70;;;11.51;46.50
62895;BME280;49204;44.916;37.998;2023-02-26T04:10:58;101086.75;;;11.54;46.43
62895;BME280;49204;44.916;37.998;2023-02-26T04:13:27;101079.25;;;11.55;46.60
62895;BME280;49204;44.916;37.998;2023-02-26T04:15:55;101095.59;;;11.53;46.56
62895;BME280;49204;44.916;37.998;2023-02-26T04:18:24;101105.34;;;11.51;46.76
62895;BME280;49204;44.916;37.998;2023-02-26T04:20:51;101101.95;;;11.48;46.70
62895;BME280;49204;44.916;37.998;2023-02-26T04:23:19;101105.06;;;11.47;46.86
62895;BME280;49204;44.916;37.998;2023-02-26T04:25:47;101098.86;;;11.48;46.92
62895;BME280;49204;44.916;37.998;2023-02-26T04:28:15;101087.79;;;11.50;46.99
62895;BME280;49204;44.916;37.998;2023-02-26T04:30:43;101088.72;;;11.49;47.04
62895;BME280;49204;44.916;37.998;2023-02-26T04:33:12;101090.84;;;11.51;47.03
62895;BME280;49204;44.916;37.998;2023-02-26T04:35:41;101094.28;;;11.53;47.03
62895;BME280;49204;44.916;37.998;2023-02-26T04:38:09;101089.80;;;11.55;47.00
62895;BME280;49204;44.916;37.998;2023-02-26T04:40:37;101090.50;;;11.61;46.89
62895;BME280;49204;44.916;37.998;2023-02-26T04:43:06;101099.73;;;11.61;46.95
62895;BME280;49204;44.916;37.998;2023-02-26T04:45:35;101102.37;;;11.61;46.87
62895;BME280;49204;44.916;37.998;2023-02-26T04:48:03;101105.80;;;11.63;46.94
62895;BME280;49204;44.916;37.998;2023-02-26T04:50:31;101120.20;;;11.66;46.93
62895;BME280;49204;44.916;37.998;2023-02-26T04:52:58;101125.34;;;11.69;46.91
62895;BME280;49204;44.916;37.998;2023-02-26T04:55:26;101130.19;;;11.69;47.08
62895;BME280;49204;44.916;37.998;2023-02-26T04:57:56;101127.88;;;11.72;47.03
62895;BME280;49204;44.916;37.998;2023-02-26T05:00:24;101123.73;;;11.76;46.88
62895;BME280;49204;44.916;37.998;2023-02-26T05:02:52;101134.92;;;11.83;46.70
62895;BME280;49204;44.916;37.998;2023-02-26T05:05:19;101131.77;;;11.85;46.68
62895;BME280;49204;44.916;37.998;2023-02-26T05:07:48;101117.25;;;11.85;46.68
62895;BME280;49204;44.916;37.998;2023-02-26T05:10:16;101139.58;;;11.88;46.67
62895;BME280;49204;44.916;37.998;2023-02-26T05:12:45;101131.11;;;11.92;46.55
62895;BME280;49204;44.916;37.998;2023-02-26T05:15:14;101127.48;;;11.94;46.47
62895;BME280;49204;44.916;37.998;2023-02-26T05:17:42;101133.56;;;11.96;46.45
62895;BME280;49204;44.916;37.998;2023-02-26T05:20:11;101158.58;;;11.98;46.34
62895;BME280;49204;44.916;37.998;2023-02-26T05:22:40;101151.82;;;12.03;46.28
62895;BME280;49204;44.916;37.998;2023-02-26T05:25:09;101158.75;;;12.05;46.13
62895;BME280;49204;44.916;37.998;2023-02-26T05:27:39;101161.23;;;12.10;46.13
62895;BME280;49204;44.916;37.998;2023-02-26T05:30:09;101160.28;;;12.11;46.12
62895;BME280;49204;44.916;37.998;2023-02-26T05:32:37;101168.89;;;12.16;46.14
62895;BME280;49204;44.916;37.998;2023-02-26T05:35:06;101156.96;;;12.18;45.97
62895;BME280;49204;44.916;37.998;2023-02-26T05:37:34;101166.37;;;12.25;45.72
62895;BME280;49204;44.916;37.998;2023-02-26T05:40:02;101168.28;;;12.31;45.52
62895;BME280;49204;44.916;37.998;2023-02-26T05:42:30;101179.53;;;12.36;45.43
62895;BME280;49204;44.916;37.998;2023-02-26T05:44:58;101155.66;;;12.40;45.19
62895;BME280;49204;44.916;37.998;2023-02-26T05:47:26;101155.51;;;12.43;45.16
62895;BME280;49204;44.916;37.998;2023-02-26T05:49:54;101171.25;;;12.46;45.22
62895;BME280;49204;44.916;37.998;2023-02-26T05:52:21;101172.52;;;12.47;45.10
62895;BME280;49204;44.916;37.998;2023-02-26T05:54:49;101177.21;;;12.51;44.92
62895;BME280;49204;44.916;37.998;2023-02-26T05:57:17;101181.03;;;12.54;44.88
62895;BME280;49204;44.916;37.998;2023-02-26T05:59:45;101179.59;;;12.57;44.73
62895;BME280;49204;44.916;37.998;2023-02-26T06:02:12;101181.98;;;12.63;44.66
62895;BME280;49204;44.916;37.998;2023-02-26T06:04:40;101181.48;;;12.65;44.46
62895;BME280;49204;44.916;37.998;2023-02-26T06:07:08;101187.41;;;12.70;44.32
62895;BME280;49204;44.916;37.998;2023-02-26T06:09:35;101177.99;;;12.75;44.33
62895;BME280;49204;44.916;37.998;2023-02-26T06:12:05;101176.99;;;12.78;44.27
62895;BME280;49204;44.916;37.998;2023-02-26T06:14:33;101171.18;;;12.80;44.26
62895;BME280;49204;44.916;37.998;2023-02-26T06:17:07;101164.92;;;12.82;44.05
62895;BME280;49204;44.916;37.998;2023-02-26T06:19:30;101184.16;;;12.86;44.03
62895;BME280;49204;44.916;37.998;2023-02-26T06:21:58;101177.03;;;12.88;44.03
62895;BME280;49204;44.916;37.998;2023-02-26T06:24:26;101179.14;;;12.90;43.98
62895;BME280;49204;44.916;37.998;2023-02-26T06:26:55;101182.58;;;12.92;43.91
62895;BME280;49204;44.916;37.998;2023-02-26T06:29:22;101197.38;;;12.96;43.76
62895;BME280;49204;44.916;37.998;2023-02-26T06:31:50;101197.26;;;12.99;43.45
62895;BME280;49204;44.916;37.998;2023-02-26T06:34:18;101203.27;;;13.03;43.49
62895;BME280;49204;44.916;37.998;2023-02-26T06:36:47;101195.67;;;13.05;43.51
62895;BME280;49204;44.916;37.998;2023-02-26T06:39:15;101181.53;;;13.06;43.59
62895;BME280;49204;44.916;37.998;2023-02-26T06:41:43;101182.33;;;13.08;43.49
62895;BME280;49204;44.916;37.998;2023-02-26T06:44:11;101182.21;;;13.11;43.43
62895;BME280;49204;44.916;37.998;2023-02-26T06:46:38;101176.39;;;13.13;43.24
62895;BME280;49204;44.916;37.998;2023-02-26T06:49:06;101186.81;;;13.17;43.08
62895;BME280;49204;44.916;37.998;2023-02-26T06:51:35;101200.38;;;13.19;42.92
62895;BME280;49204;44.916;37.998;2023-02-26T06:54:03;101196.27;;;13.22;42.76
62895;BME280;49204;44.916;37.998;2023-02-26T06:56:30;101206.34;;;13.24;42.89
62895;BME280;49204;44.916;37.998;2023-02-26T06:58:58;101194.35;;;13.26;42.81
62895;BME280;49204;44.916;37.998;2023-02-26T07:01:26;101205.66;;;13.29;42.80
62895;BME280;49204;44.916;37.998;2023-02-26T07:03:54;101210.80;;;13.34;42.58
62895;BME280;49204;44.916;37.998;2023-02-26T07:06:23;101212.50;;;13.35;42.51
62895;BME280;49204;44.916;37.998;2023-02-26T07:08:51;101212.38;;;13.38;42.42
62895;BME280;49204;44.916;37.998;2023-02-26T07:11:19;101216.60;;;13.42;42.43
62895;BME280;49204;44.916;37.998;2023-02-26T07:13:47;101212.45;;;13.47;42.48
62895;BME280;49204;44.916;37.998;2023-02-26T07:16:14;101213.44;;;13.55;42.19
62895;BME280;49204;44.916;37.998;2023-02-26T07:18:42;101224.14;;;13.62;42.24
62895;BME280;49204;44.916;37.998;2023-02-26T07:21:10;101214.48;;;13.71;42.08
62895;BME280;49204;44.916;37.998;2023-02-26T07:23:38;101236.16;;;13.79;41.78
62895;BME280;49204;44.916;37.998;2023-02-26T07:26:05;101238.48;;;13.87;41.81
62895;BME280;49204;44.916;37.998;2023-02-26T07:28:34;101246.08;;;13.95;41.58
62895;BME280;49204;44.916;37.998;2023-02-26T07:31:02;101259.03;;;14.01;41.53
62895;BME280;49204;44.916;37.998;2023-02-26T07:33:30;101257.03;;;14.06;41.43
62895;BME280;49204;44.916;37.998;2023-02-26T07:35:58;101266.02;;;14.12;41.50
62895;BME280;49204;44.916;37.998;2023-02-26T07:38:25;101262.83;;;14.14;41.14
62895;BME280;49204;44.916;37.998;2023-02-26T07:40:54;101266.61;;;14.19;41.34
62895;BME280;49204;44.916;37.998;2023-02-26T07:43:27;101253.14;;;14.23;41.21
62895;BME280;49204;44.916;37.998;2023-02-26T07:45:51;101271.25;;;14.33;41.36
62895;BME280;49204;44.916;37.998;2023-02-26T07:48:19;101264.74;;;14.40;40.85
62895;BME280;49204;44.916;37.998;2023-02-26T07:50:49;101265.80;;;14.46;40.88
62895;BME280;49204;44.916;37.998;2023-02-26T07:53:16;101265.09;;;14.61;40.92
62895;BME280;49204;44.916;37.998;2023-02-26T07:55:44;101280.27;;;14.77;40.75
62895;BME280;49204;44.916;37.998;2023-02-26T07:58:12;101282.09;;;14.85;40.48
62895;BME280;49204;44.916;37.998;2023-02-26T08:00:39;101288.11;;;14.89;40.25
62895;BME280;49204;44.916;37.998;2023-02-26T08:03:07;101283.86;;;14.84;40.11
62895;BME280;49204;44.916;37.998;2023-02-26T08:05:35;101268.30;;;14.87;40.13
62895;BME280;49204;44.916;37.998;2023-02-26T08:08:03;101266.35;;;14.91;40.09
62895;BME280;49204;44.916;37.998;2023-02-26T08:10:31;101265.73;;;14.94;39.95
62895;BME280;49204;44.916;37.998;2023-02-26T08:12:58;101275.97;;;15.02;39.83
62895;BME280;49204;44.916;37.998;2023-02-26T08:15:26;101265.89;;;15.09;39.88
62895;BME280;49204;44.916;37.998;2023-02-26T08:17:54;101272.61;;;15.16;39.86
62895;BME280;49204;44.916;37.998;2023-02-26T08:20:22;101264.58;;;15.17;39.92
62895;BME280;49204;44.916;37.998;2023-02-26T08:22:50;101271.69;;;15.17;39.79
62895;BME280;49204;44.916;37.998;2023-02-26T08:25:18;101276.75;;;15.21;39.96
62895;BME280;49204;44.916;37.998;2023-02-26T08:27:45;101261.40;;;15.28;39.66
62895;BME280;49204;44.916;37.998;2023-02-26T08:30:13;101281.98;;;15.23;39.36
62895;BME280;49204;44.916;37.998;2023-02-26T08:32:41;101285.97;;;15.23;39.72
62895;BME280;49204;44.916;37.998;2023-02-26T08:35:09;101289.02;;;15.24;39.81
62895;BME280;49204;44.916;37.998;2023-02-26T08:37:37;101289.39;;;15.25;39.55
62895;BME280;49204;44.916;37.998;2023-02-26T08:40:06;101287.08;;;15.28;39.80
62895;BME280;49204;44.916;37.998;2023-02-26T08:42:34;101299.31;;;15.30;39.61
62895;BME280;49204;44.916;37.998;2023-02-26T08:45:02;101306.80;;;15.31;39.56
62895;BME280;49204;44.916;37.998;2023-02-26T08:47:30;101301.90;;;15.32;39.43
62895;BME280;49204;44.916;37.998;2023-02-26T08:49:58;101278.09;;;15.30;39.21
62895;BME280;49204;44.916;37.998;2023-02-26T08:52:25;101293.87;;;15.33;39.52
62895;BME280;49204;44.916;37.998;2023-02-26T08:54:53;101301.91;;;15.40;39.37
62895;BME280;49204;44.916;37.998;2023-02-26T08:57:21;101309.62;;;15.45;39.39
62895;BME280;49204;44.916;37.998;2023-02-26T08:59:49;101309.00;;;15.49;39.26
62895;BME280;49204;44.916;37.998;2023-02-26T09:02:17;101303.55;;;15.52;39.12
62895;BME280;49204;44.916;37.998;2023-02-26T09:04:45;101310.34;;;15.57;39.26
62895;BME280;49204;44.916;37.998;2023-02-26T09:07:13;101311.98;;;15.69;39.25
62895;BME280;49204;44.916;37.998;2023-02-26T09:09:40;101318.80;;;15.74;38.68
62895;BME280;49204;44.916;37.998;2023-02-26T09:12:08;101299.00;;;15.71;38.49
62895;BME280;49204;44.916;37.998;2023-02-26T09:14:36;101318.80;;;15.74;38.70
62895;BME280;49204;44.916;37.998;2023-02-26T09:17:04;101316.00;;;15.86;38.62
62895;BME280;49204;44.916;37.998;2023-02-26T09:19:32;101312.75;;;15.97;38.50
62895;BME280;49204;44.916;37.998;2023-02-26T09:21:59;101323.23;;;16.00;38.43
62895;BME280;49204;44.916;37.998;2023-02-26T09:24:27;101317.02;;;16.08;38.49
62895;BME280;49204;44.916;37.998;2023-02-26T09:26:56;101322.25;;;16.18;38.58
62895;BME280;49204;44.916;37.998;2023-02-26T09:29:23;101314.00;;;16.32;38.40
62895;BME280;49204;44.916;37.998;2023-02-26T09:31:51;101324.95;;;16.34;38.15
62895;BME280;49204;44.916;37.998;2023-02-26T09:34:19;101311.48;;;16.37;38.14
62895;BME280;49204;44.916;37.998;2023-02-26T09:36:47;101316.29;;;16.31;38.13
62895;BME280;49204;44.916;37.998;2023-02-26T09:39:14;101323.64;;;16.26;38.29
62895;BME280;49204;44.916;37.998;2023-02-26T09:41:43;101316.02;;;16.19;38.43
62895;BME280;49204;44.916;37.998;2023-02-26T09:44:22;101318.68;;;16.11;38.60
62895;BME280;49204;44.916;37.998;2023-02-26T09:46:51;101315.63;;;16.10;38.81
62895;BME280;49204;44.916;37.998;2023-02-26T09:49:20;101325.33;;;16.02;38.83
62895;BME280;49204;44.916;37.998;2023-02-26T09:51:50;101322.38;;;15.91;38.95
62895;BME280;49204;44.916;37.998;2023-02-26T09:54:19;101321.35;;;15.93;39.29
62895;BME280;49204;44.916;37.998;2023-02-26T09:56:46;101327.21;;;16.00;39.27
62895;BME280;49204;44.916;37.998;2023-02-26T09:59:14;101327.98;;;16.02;39.23
62895;BME280;49204;44.916;37.998;2023-02-26T10:04:21;101314.08;;;15.97;39.31
62895;BME280;49204;44.916;37.998;2023-02-26T10:09:42;101310.65;;;15.95;39.42
62895;BME280;49204;44.916;37.998;2023-02-26T10:12:17;101320.91;;;15.94;39.24
62895;BME280;49204;44.916;37.998;2023-02-26T10:14:58;101312.31;;;15.97;39.42
62895;BME280;49204;44.916;37.998;2023-02-26T10:17:22;101319.59;;;16.18;39.37
62895;BME280;49204;44.916;37.998;2023-02-26T10:19:52;101335.75;;;16.23;39.06
62895;BME280;49204;44.916;37.998;2023-02-26T10:22:24;101322.47;;;16.23;39.25
62895;BME280;49204;44.916;37.998;2023-02-26T10:25:04;101313.29;;;16.37;39.22
62895;BME280;49204;44.916;37.998;2023-02-26T10:27:37;101330.41;;;16.56;38.79
62895;BME280;49204;44.916;37.998;2023-02-26T10:30:00;101332.68;;;16.64;38.36
62895;BME280;49204;44.916;37.998;2023-02-26T10:32:40;101311.52;;;16.53;38.53
62895;BME280;49204;44.916;37.998;2023-02-26T10:35:13;101328.87;;;16.52;38.56
62895;BME280;49204;44.916;37.998;2023-02-26T10:40:26;101317.50;;;16.66;38.72
62895;BME280;49204;44.916;37.998;2023-02-26T10:42:57;101324.19;;;16.73;38.42
62895;BME280;49204;44.916;37.998;2023-02-26T10:50:55;101327.02;;;16.70;38.68
62895;BME280;49204;44.916;37.998;2023-02-26T10:53:22;101312.23;;;16.48;38.88
62895;BME280;49204;44.916;37.998;2023-02-26T10:56:03;101295.09;;;16.38;39.16
62895;BME280;49204;44.916;37.998;2023-02-26T10:58:27;101299.03;;;16.22;39.20
62895;BME280;49204;44.916;37.998;2023-02-26T11:00:55;101305.54;;;16.16;39.33
62895;BME280;49204;44.916;37.998;2023-02-26T11:05:52;101280.67;;;16.17;39.54
62895;BME280;49204;44.916;37.998;2023-02-26T11:08:27;101292.90;;;16.04;39.35
62895;BME280;49204;44.916;37.998;2023-02-26T11:10:56;101281.70;;;15.90;39.85
62895;BME280;49204;44.916;37.998;2023-02-26T11:13:25;101299.41;;;15.90;40.10
62895;BME280;49204;44.916;37.998;2023-02-26T11:15:56;101307.77;;;15.91;40.21
62895;BME280;49204;44.916;37.998;2023-02-26T11:18:39;101300.91;;;15.87;40.39
62895;BME280;49204;44.916;37.998;2023-02-26T11:21:07;101305.82;;;15.86;40.43
62895;BME280;49204;44.916;37.998;2023-02-26T11:23:35;101294.42;;;15.83;40.46
62895;BME280;49204;44.916;37.998;2023-02-26T11:26:06;101301.06;;;15.83;40.50
62895;BME280;49204;44.916;37.998;2023-02-26T11:28:35;101311.35;;;15.90;40.53
62895;BME280;49204;44.916;37.998;2023-02-26T11:31:08;101319.87;;;16.05;40.42
62895;BME280;49204;44.916;37.998;2023-02-26T11:33:43;101304.29;;;16.15;40.21
62895;BME280;49204;44.916;37.998;2023-02-26T11:36:13;101317.22;;;16.30;40.07
62895;BME280;49204;44.916;37.998;2023-02-26T11:38:43;101316.78;;;16.46;39.80
62895;BME280;49204;44.916;37.998;2023-02-26T11:41:11;101315.73;;;16.73;39.36
62895;BME280;49204;44.916;37.998;2023-02-26T11:43:41;101304.98;;;17.00;39.01
62895;BME280;49204;44.916;37.998;2023-02-26T11:46:09;101325.91;;;17.06;38.79
62895;BME280;49204;44.916;37.998;2023-02-26T11:48:48;101330.66;;;17.01;38.83
62895;BME280;49204;44.916;37.998;2023-02-26T11:51:13;101334.73;;;16.99;38.81
62895;BME280;49204;44.916;37.998;2023-02-26T11:53:46;101353.73;;;16.84;39.01
62895;BME280;49204;44.916;37.998;2023-02-26T11:56:12;101343.77;;;16.63;39.03
62895;BME280;49204;44.916;37.998;2023-02-26T11:58:42;101333.28;;;16.44;39.53
62895;BME280;49204;44.916;37.998;2023-02-26T12:01:11;101311.19;;;16.35;39.55
62895;BME280;49204;44.916;37.998;2023-02-26T12:03:42;101335.13;;;16.17;39.84
62895;BME280;49204;44.916;37.998;2023-02-26T12:06:13;101339.23;;;16.07;40.18
62895;BME280;49204;44.916;37.998;2023-02-26T12:08:37;101323.78;;;15.98;40.40
62895;BME280;49204;44.916;37.998;2023-02-26T12:13:57;101324.33;;;15.87;40.86
62895;BME280;49204;44.916;37.998;2023-02-26T12:16:19;101346.53;;;15.86;41.03
62895;BME280;49204;44.916;37.998;2023-02-26T12:21:46;101358.30;;;15.80;40.92
62895;BME280;49204;44.916;37.998;2023-02-26T12:24:10;101357.81;;;15.72;41.25
62895;BME280;49204;44.916;37.998;2023-02-26T12:26:44;101359.28;;;15.69;41.31
62895;BME280;49204;44.916;37.998;2023-02-26T12:31:49;101362.34;;;15.70;41.49
62895;BME280;49204;44.916;37.998;2023-02-26T12:34:31;101301.87;;;15.77;41.46
62895;BME280;49204;44.916;37.998;2023-02-26T12:37:03;101371.28;;;15.78;41.41
62895;BME280;49204;44.916;37.998;2023-02-26T12:39:33;101346.27;;;15.73;41.55
62895;BME280;49204;44.916;37.998;2023-02-26T12:42:03;101347.81;;;15.69;41.57
62895;BME280;49204;44.916;37.998;2023-02-26T12:44:48;101356.63;;;15.69;41.75
62895;BME280;49204;44.916;37.998;2023-02-26T12:47:32;101364.00;;;15.64;41.68
62895;BME280;49204;44.916;37.998;2023-02-26T12:52:48;101369.52;;;15.42;42.14
62895;BME280;49204;44.916;37.998;2023-02-26T12:57:49;101391.73;;;15.12;42.49
62895;BME280;49204;44.916;37.998;2023-02-26T13:00:18;101373.06;;;15.04;42.78
62895;BME280;49204;44.916;37.998;2023-02-26T13:05:45;101396.72;;;14.90;42.99
62895;BME280;49204;44.916;37.998;2023-02-26T13:13:44;101399.28;;;14.83;43.24
62895;BME280;49204;44.916;37.998;2023-02-26T13:16:16;101399.80;;;14.81;43.32
62895;BME280;49204;44.916;37.998;2023-02-26T13:21:19;101379.18;;;14.69;43.63
62895;BME280;49204;44.916;37.998;2023-02-26T13:23:50;101416.73;;;14.68;43.63
62895;BME280;49204;44.916;37.998;2023-02-26T13:26:18;101397.48;;;14.64;43.87
62895;BME280;49204;44.916;37.998;2023-02-26T13:28:49;101405.44;;;14.64;43.87
62895;BME280;49204;44.916;37.998;2023-02-26T13:31:17;101403.83;;;14.60;43.97
62895;BME280;49204;44.916;37.998;2023-02-26T13:33:45;101395.22;;;14.55;43.91
62895;BME280;49204;44.916;37.998;2023-02-26T13:36:15;101407.46;;;14.47;44.02
62895;BME280;49204;44.916;37.998;2023-02-26T13:38:45;101401.91;;;14.43;44.07
62895;BME280;49204;44.916;37.998;2023-02-26T13:41:19;101388.47;;;14.38;44.31
62895;BME280;49204;44.916;37.998;2023-02-26T13:49:03;101395.12;;;14.17;44.84
62895;BME280;49204;44.916;37.998;2023-02-26T13:51:32;101394.52;;;14.10;44.95
62895;BME280;49204;44.916;37.998;2023-02-26T13:54:00;101373.20;;;14.03;45.14
62895;BME280;49204;44.916;37.998;2023-02-26T14:01:57;101376.73;;;13.83;45.51
62895;BME280;49204;44.916;37.998;2023-02-26T14:04:28;101361.50;;;13.78;45.56
62895;BME280;49204;44.916;37.998;2023-02-26T14:07:10;101358.23;;;13.71;45.66